Time;durP1;ratioP1;P1;durP2;ratioP2;P2;SDS_P1;SDS_P2;PMS_P1;PMS_P2;Temp;Humidity;BMP_temperature;BMP_pressure;BME280_temperature;BME280_humidity;BME280_pressure;Samples;Min_cycle;Max_cycle;Signal;HPM_P1;HPM_P2
2023/04/19 00:00:18;;;;;;;;;23.00;21.50;;;;;16.59;56.78;98921.66;5961618;29;96156;-61
2023/04/19 00:03:23;;;;;;;;;24.50;22.75;;;;;16.59;56.80;98918.94;5972689;29;96537;-61
2023/04/19 00:06:29;;;;;;;;;22.60;20.00;;;;;16.57;57.08;98915.63;5971434;29;96907;-61
2023/04/19 00:09:32;;;;;;;;;20.40;18.60;;;;;16.55;57.11;98915.91;5981087;29;96243;-61
2023/04/19 00:12:35;;;;;;;;;23.00;22.00;;;;;16.54;56.85;98914.25;5949177;29;96381;-61
2023/04/19 00:15:40;;;;;;;;;19.75;19.75;;;;;16.53;56.91;98909.88;5983746;29;96256;-61
2023/04/19 00:18:43;;;;;;;;;23.50;20.50;;;;;16.48;57.21;98901.69;5966232;29;96482;-61
2023/04/19 00:21:47;;;;;;;;;24.60;22.60;;;;;16.50;57.49;98904.16;5987141;29;97059;-61
2023/04/19 00:24:51;;;;;;;;;21.75;18.25;;;;;16.53;57.53;98903.63;5987222;29;96329;-61
2023/04/19 00:27:54;;;;;;;;;22.00;21.00;;;;;16.51;58.00;98900.34;5970591;29;96853;-60
2023/04/19 00:30:59;;;;;;;;;23.00;21.20;;;;;16.47;57.98;98900.84;5964839;29;96517;-61
2023/04/19 00:34:02;;;;;;;;;21.60;21.00;;;;;16.39;58.13;98893.16;5965011;29;96319;-61
2023/04/19 00:37:06;;;;;;;;;21.80;20.40;;;;;16.35;58.41;98877.63;5980920;29;96424;-61
2023/04/19 00:40:09;;;;;;;;;23.20;21.20;;;;;16.42;58.55;98881.75;5974164;29;96417;-61
2023/04/19 00:43:17;;;;;;;;;22.00;21.00;;;;;16.44;58.49;98882.34;5976985;29;96333;-61
2023/04/19 00:46:22;;;;;;;;;21.00;18.00;;;;;16.43;58.51;98877.13;5961464;29;96693;-60
2023/04/19 00:49:26;;;;;;;;;22.80;21.00;;;;;16.33;58.69;98860.72;5975291;29;96408;-61
2023/04/19 00:52:30;;;;;;;;;23.60;21.00;;;;;16.38;59.07;98877.91;5959897;29;96362;-61
2023/04/19 00:55:33;;;;;;;;;18.00;17.40;;;;;16.35;59.13;98877.63;5980216;29;96924;-61
2023/04/19 00:58:38;;;;;;;;;24.60;22.00;;;;;16.32;59.42;98873.50;5992540;29;96277;-60
2023/04/19 01:01:43;;;;;;;;;25.00;24.00;;;;;16.24;59.91;98856.84;5969928;29;96824;-61
2023/04/19 01:04:47;;;;;;;;;24.00;23.00;;;;;16.20;60.06;98872.88;5992382;29;96760;-60
2023/04/19 01:07:50;;;;;;;;;25.00;24.00;;;;;16.07;60.78;98848.00;5976704;29;98531;-60
2023/04/19 01:10:53;;;;;;;;;22.50;20.00;;;;;16.04;60.79;98844.72;5993176;29;96470;-60
2023/04/19 01:13:57;;;;;;;;;31.00;23.00;;;;;16.03;61.05;98844.97;5977874;29;96748;-60
2023/04/19 01:17:02;;;;;;;;;22.40;20.40;;;;;15.99;61.06;98841.13;5991053;29;96350;-61
2023/04/19 01:20:06;;;;;;;;;23.40;22.00;;;;;15.95;61.29;98831.84;5980737;29;96576;-60
2023/04/19 01:23:11;;;;;;;;;22.50;22.00;;;;;15.91;61.49;98831.53;5963455;29;96334;-60
2023/04/19 01:26:15;;;;;;;;;23.80;22.80;;;;;15.92;61.68;98833.19;5995480;29;96229;-60
2023/04/19 01:29:20;;;;;;;;;22.75;19.00;;;;;15.93;61.64;98829.38;5992892;29;96300;-61
2023/04/19 01:32:25;;;;;;;;;21.80;20.80;;;;;15.93;61.60;98829.38;5973438;29;96223;-60
2023/04/19 01:35:31;;;;;;;;;21.80;20.20;;;;;15.92;61.93;98829.66;5969785;29;96423;-60
2023/04/19 01:38:35;;;;;;;;;21.60;21.00;;;;;15.96;61.75;98826.16;5993833;29;96664;-60
2023/04/19 01:41:39;;;;;;;;;24.00;23.00;;;;;15.97;61.95;98826.97;5981888;29;96431;-61
2023/04/19 01:44:42;;;;;;;;;26.00;23.60;;;;;15.95;61.88;98816.34;5994011;29;96312;-60
2023/04/19 01:47:45;;;;;;;;;26.00;23.40;;;;;15.88;62.18;98823.09;5993486;29;96369;-60
2023/04/19 01:50:49;;;;;;;;;24.50;22.75;;;;;15.88;62.34;98809.50;5990616;29;97219;-60
2023/04/19 01:53:53;;;;;;;;;24.75;22.00;;;;;15.89;62.03;98803.78;5976909;29;96501;-60
2023/04/19 01:56:58;;;;;;;;;27.00;25.00;;;;;15.92;62.05;98810.63;5992738;29;96450;-60
2023/04/19 02:00:02;;;;;;;;;25.40;24.00;;;;;15.91;62.23;98808.97;5966128;29;96429;-60
2023/04/19 02:03:16;;;;;;;;;27.00;23.60;;;;;15.92;62.30;98803.28;5979841;29;96920;-60
2023/04/19 02:06:20;;;;;;;;;25.40;22.60;;;;;15.93;62.53;98802.19;5985062;29;96419;-60
2023/04/19 02:09:26;;;;;;;;;25.40;23.40;;;;;15.94;62.59;98803.00;5974970;29;96436;-61
2023/04/19 02:12:30;;;;;;;;;27.00;25.00;;;;;15.93;62.47;98791.31;5952992;29;96306;-61
2023/04/19 02:15:34;;;;;;;;;24.00;24.00;;;;;15.89;62.42;98792.09;5970957;29;96494;-60
2023/04/19 02:18:39;;;;;;;;;22.80;21.80;;;;;15.82;62.82;98781.44;5954778;29;96449;-60
2023/04/19 02:21:42;;;;;;;;;25.40;23.40;;;;;15.80;62.73;98783.59;5958856;29;96372;-60
2023/04/19 02:24:51;;;;;;;;;25.75;23.00;;;;;15.77;62.96;98784.13;5960652;29;96375;-60
2023/04/19 02:27:54;;;;;;;;;27.00;24.40;;;;;15.67;63.26;98775.03;5997076;29;96234;-60
2023/04/19 02:30:58;;;;;;;;;24.00;22.00;;;;;15.66;63.33;98770.66;5978547;29;96272;-60
2023/04/19 02:34:03;;;;;;;;;25.60;22.60;;;;;15.60;63.50;98762.47;5961843;29;96793;-60
2023/04/19 02:37:08;;;;;;;;;25.60;24.00;;;;;15.60;63.46;98765.19;5995924;29;96351;-60
2023/04/19 02:40:12;;;;;;;;;26.00;24.00;;;;;15.47;63.86;98760.13;5978570;29;96352;-60
2023/04/19 02:43:16;;;;;;;;;25.60;23.60;;;;;15.39;64.21;98760.63;5975835;29;96332;-60
2023/04/19 02:46:19;;;;;;;;;26.67;24.33;;;;;15.46;63.94;98763.09;5994364;29;96443;-60
2023/04/19 02:49:22;;;;;;;;;27.00;25.00;;;;;15.51;63.72;98758.59;5994494;29;96667;-61
2023/04/19 02:52:26;;;;;;;;;26.67;23.67;;;;;15.50;63.86;98766.94;5988489;29;96442;-60
2023/04/19 02:55:32;;;;;;;;;29.40;26.60;;;;;15.50;63.90;98756.91;5969053;29;96252;-60
2023/04/19 02:58:47;;;;;;;;;29.00;27.00;;;;;15.48;63.76;98760.97;5972570;29;96393;-61
2023/04/19 03:01:51;;;;;;;;;24.20;22.00;;;;;15.48;63.76;98764.50;5945099;29;97172;-59
2023/04/19 03:04:55;;;;;;;;;25.00;23.60;;;;;14.34;63.67;98568.31;5956208;29;96302;-60
2023/04/19 03:07:58;;;;;;;;;24.00;23.00;;;;;15.47;63.68;98748.44;5956504;29;96263;-59
2023/04/19 03:11:03;;;;;;;;;28.50;27.50;;;;;15.49;63.81;98743.59;5976541;29;96509;-60
2023/04/19 03:14:06;;;;;;;;;28.00;25.40;;;;;15.44;63.70;98738.09;5977585;29;96224;-60
2023/04/19 03:17:10;;;;;;;;;24.00;21.80;;;;;15.44;63.30;98738.91;5985162;29;97006;-60
2023/04/19 03:20:15;;;;;;;;;25.75;23.25;;;;;15.48;62.60;98742.78;5976183;29;96330;-60
2023/04/19 03:23:19;;;;;;;;;25.00;23.25;;;;;15.48;62.37;98744.66;5966941;29;96708;-60
2023/04/19 03:26:24;;;;;;;;;24.60;22.60;;;;;15.42;61.92;98742.97;5977801;29;96709;-60
2023/04/19 03:29:29;;;;;;;;;23.20;21.00;;;;;15.43;61.45;98733.75;5976841;29;96426;-60
2023/04/19 03:32:36;;;;;;;;;22.00;20.00;;;;;15.49;60.15;98728.09;5988913;29;96370;-60
2023/04/19 03:35:41;;;;;;;;;22.00;22.00;;;;;15.57;59.76;98727.66;5991375;29;96408;-60
2023/04/19 03:38:46;;;;;;;;;21.40;20.00;;;;;15.56;59.17;98725.19;5971525;29;96343;-60
2023/04/19 03:41:56;;;;;;;;;22.60;22.00;;;;;15.51;59.22;98712.38;5967666;29;96639;-60
2023/04/19 03:45:22;;;;;;;;;20.00;16.50;;;;;15.43;59.34;98717.44;5985962;29;97005;-60
2023/04/19 03:48:26;;;;;;;;;21.60;21.60;;;;;15.40;59.28;98712.50;5981797;29;96894;-60
2023/04/19 03:51:31;;;;;;;;;20.00;18.50;;;;;15.36;59.18;98709.50;5987695;29;96273;-60
2023/04/19 03:54:35;;;;;;;;;17.00;15.00;;;;;15.36;58.42;98708.66;5969201;29;96264;-61
2023/04/19 03:57:42;;;;;;;;;18.25;17.25;;;;;15.34;57.86;98708.94;5963864;29;96268;-60
2023/04/19 04:00:55;;;;;;;;;21.00;20.00;;;;;15.38;57.94;98707.34;5974416;29;96314;-60
2023/04/19 04:03:58;;;;;;;;;19.00;18.00;;;;;15.33;57.95;98706.47;5988353;29;96919;-60
2023/04/19 04:07:06;;;;;;;;;19.00;17.00;;;;;15.30;57.90;98698.81;5969278;29;96507;-60
2023/04/19 04:10:10;;;;;;;;;17.60;16.20;;;;;15.25;57.46;98702.31;5990800;29;96864;-59
2023/04/19 04:13:18;;;;;;;;;19.20;18.40;;;;;15.31;57.25;98706.72;5957855;29;96219;-60
2023/04/19 04:16:30;;;;;;;;;20.00;18.20;;;;;15.28;57.12;98696.38;5968468;29;96589;-62
2023/04/19 04:19:33;;;;;;;;;16.60;15.00;;;;;15.25;57.29;98705.03;5948195;29;96727;-62
2023/04/19 04:22:40;;;;;;;;;17.40;16.00;;;;;15.24;57.57;98705.31;5971358;29;96376;-62
2023/04/19 04:25:46;;;;;;;;;14.00;14.00;;;;;15.28;57.27;98701.81;5942999;29;97049;-62
2023/04/19 04:28:52;;;;;;;;;17.20;17.20;;;;;15.30;56.82;98715.13;5968572;29;97584;-62
2023/04/19 04:31:56;;;;;;;;;18.60;15.60;;;;;15.41;56.65;98712.25;5954849;29;96426;-62
2023/04/19 04:35:07;;;;;;;;;17.80;16.80;;;;;15.46;56.69;98704.16;5943418;29;98612;-62
2023/04/19 04:38:40;;;;;;;;;17.40;17.00;;;;;15.51;56.05;98697.97;5973622;29;96433;-62
2023/04/19 04:41:43;;;;;;;;;20.00;18.00;;;;;15.56;55.91;98700.75;5956497;29;97439;-63
2023/04/19 04:44:49;;;;;;;;;16.00;15.00;;;;;15.61;55.90;98700.78;5959382;29;96912;-64
2023/04/19 04:47:53;;;;;;;;;17.00;16.00;;;;;15.60;56.07;98696.44;5941001;29;96902;-64
2023/04/19 04:50:56;;;;;;;;;17.00;16.00;;;;;15.62;56.15;98698.91;5947407;29;97024;-64
2023/04/19 04:54:00;;;;;;;;;17.00;17.00;;;;;15.63;55.94;98695.94;5950035;29;97014;-64
2023/04/19 04:57:04;;;;;;;;;18.00;16.50;;;;;15.64;55.66;98694.03;5955308;29;96532;-63
2023/04/19 05:00:11;;;;;;;;;18.00;17.00;;;;;15.58;55.42;98691.28;5954540;29;96952;-64
2023/04/19 05:03:23;;;;;;;;;17.40;17.00;;;;;15.52;55.47;98692.31;5955818;29;96512;-64
2023/04/19 05:06:32;;;;;;;;;17.75;16.00;;;;;15.59;55.51;98690.16;5956623;29;96459;-64
2023/04/19 05:09:35;;;;;;;;;16.40;15.00;;;;;15.53;55.57;98682.25;5956247;29;96499;-63
2023/04/19 05:12:39;;;;;;;;;17.60;17.60;;;;;15.60;55.26;98683.66;5959687;29;96616;-64
2023/04/19 05:15:43;;;;;;;;;17.60;17.40;;;;;15.61;55.66;98681.78;5940387;29;97178;-64
2023/04/19 05:18:47;;;;;;;;;17.00;16.00;;;;;15.57;55.16;98684.19;5959143;29;96557;-63
2023/04/19 05:21:50;;;;;;;;;18.00;17.00;;;;;15.52;55.27;98680.59;5964566;29;96352;-63
2023/04/19 05:24:54;;;;;;;;;16.00;15.00;;;;;15.56;55.11;98681.72;5947646;29;97208;-64
2023/04/19 05:27:57;;;;;;;;;17.80;16.00;;;;;15.54;55.16;98679.25;5932324;29;96662;-64
2023/04/19 05:31:08;;;;;;;;;17.00;15.75;;;;;15.51;55.26;98679.78;5944158;29;99200;-64
2023/04/19 05:34:20;;;;;;;;;18.75;16.75;;;;;15.50;55.65;98682.72;5957557;29;96236;-64
2023/04/19 05:37:25;;;;;;;;;17.00;16.00;;;;;15.54;55.42;98679.25;5957559;29;96418;-64
2023/04/19 05:40:29;;;;;;;;;17.50;16.50;;;;;15.55;55.44;98680.91;5945019;29;96662;-63
2023/04/19 05:43:33;;;;;;;;;15.00;14.00;;;;;15.54;55.85;98683.91;5965123;29;97520;-63
2023/04/19 05:46:39;;;;;;;;;15.00;13.60;;;;;15.47;55.69;98691.41;5955757;29;96540;-64
2023/04/19 05:49:46;;;;;;;;;15.60;15.40;;;;;15.43;55.34;98688.38;5956126;29;96527;-64
2023/04/19 05:52:57;;;;;;;;;14.60;13.60;;;;;15.40;55.34;98691.59;5940656;29;97060;-64
2023/04/19 05:56:01;;;;;;;;;14.60;12.20;;;;;15.40;55.20;98693.50;5956868;29;96443;-64
2023/04/19 05:59:05;;;;;;;;;15.20;14.60;;;;;15.27;55.38;98677.63;5941626;29;97967;-64
2023/04/19 06:02:10;;;;;;;;;16.00;14.75;;;;;15.32;55.76;98681.22;5956996;29;97513;-64
2023/04/19 06:05:13;;;;;;;;;14.50;13.50;;;;;15.32;56.01;98686.66;5956777;29;96417;-64
2023/04/19 06:08:17;;;;;;;;;15.50;14.00;;;;;15.33;55.57;98676.59;5956986;29;96330;-64
2023/04/19 06:11:21;;;;;;;;;13.00;12.40;;;;;15.36;56.02;98681.50;5955096;29;96306;-64
2023/04/19 06:14:38;;;;;;;;;13.50;12.50;;;;;15.40;55.83;98677.19;5956068;29;96522;-64
2023/04/19 06:17:43;;;;;;;;;11.80;10.60;;;;;15.39;56.12;98681.84;5955846;29;97038;-64
2023/04/19 06:20:46;;;;;;;;;11.25;10.25;;;;;15.44;55.91;98684.56;5972672;29;96428;-64
2023/04/19 06:23:49;;;;;;;;;14.00;13.20;;;;;15.52;56.01;98683.31;5972767;29;96299;-63
2023/04/19 06:26:53;;;;;;;;;16.00;14.00;;;;;15.60;56.26;98683.66;5960275;29;97265;-64
2023/04/19 06:29:56;;;;;;;;;14.50;12.50;;;;;15.60;55.59;98678.22;5973098;29;96940;-64
2023/04/19 06:33:01;;;;;;;;;11.00;11.00;;;;;15.57;55.09;98684.19;5972682;29;96539;-64
2023/04/19 06:36:05;;;;;;;;;13.00;13.00;;;;;15.66;55.53;98689.16;5971937;29;97252;-64
2023/04/19 06:39:09;;;;;;;;;12.00;11.80;;;;;15.58;55.15;98680.41;5972861;29;96531;-64
2023/04/19 06:42:13;;;;;;;;;16.50;14.50;;;;;15.70;54.77;98684.81;5972775;29;96371;-64
2023/04/19 06:45:16;;;;;;;;;16.00;15.00;;;;;15.71;54.51;98692.72;5972641;29;96439;-61
2023/04/19 06:48:21;;;;;;;;;13.00;12.00;;;;;15.70;54.83;98696.50;5967034;29;96686;-62
2023/04/19 06:51:24;;;;;;;;;16.00;14.50;;;;;15.74;54.56;98689.47;5964331;29;96463;-64
2023/04/19 06:54:28;;;;;;;;;13.25;12.25;;;;;15.78;54.45;98690.63;5970128;29;96470;-64
2023/04/19 06:57:31;;;;;;;;;15.00;15.00;;;;;15.75;54.52;98691.13;5972501;29;96985;-63
2023/04/19 07:00:34;;;;;;;;;15.25;13.00;;;;;15.70;53.88;98687.53;5969607;29;96712;-64
2023/04/19 07:03:39;;;;;;;;;18.40;16.00;;;;;15.65;53.43;98695.66;5956016;29;97172;-64
2023/04/19 07:06:43;;;;;;;;;17.00;16.00;;;;;15.68;53.62;98692.44;5975184;29;96424;-64
2023/04/19 07:09:46;;;;;;;;;15.00;13.50;;;;;15.72;53.46;98694.38;5976425;29;96371;-64
2023/04/19 07:12:49;;;;;;;;;17.00;17.00;;;;;15.83;53.23;98690.63;5956402;29;96709;-63
2023/04/19 07:15:52;;;;;;;;;19.00;16.60;;;;;15.88;53.13;98679.78;5963830;29;96492;-63
2023/04/19 07:18:57;;;;;;;;;18.00;18.00;;;;;15.99;52.70;98686.13;5962749;29;97606;-64
2023/04/19 07:22:01;;;;;;;;;19.00;17.60;;;;;16.06;52.62;98688.63;5954391;29;96267;-63
2023/04/19 07:25:05;;;;;;;;;20.00;18.00;;;;;16.12;52.92;98682.97;5976187;29;96419;-63
2023/04/19 07:28:09;;;;;;;;;17.40;16.40;;;;;16.09;52.17;98688.09;5975881;29;96262;-64
2023/04/19 07:31:15;;;;;;;;;17.60;17.00;;;;;15.93;52.14;98682.56;5959109;29;96712;-64
2023/04/19 07:34:20;;;;;;;;;19.00;16.00;;;;;15.87;52.10;98685.50;5975977;29;97504;-64
2023/04/19 07:37:23;;;;;;;;;19.60;18.00;;;;;15.87;52.63;98686.34;5975409;29;96970;-64
2023/04/19 07:40:27;;;;;;;;;21.00;19.20;;;;;15.89;52.64;98696.94;5975602;29;96640;-64
2023/04/19 07:43:30;;;;;;;;;19.00;17.50;;;;;15.94;52.89;98691.53;5975330;29;96915;-63
2023/04/19 07:46:34;;;;;;;;;18.00;16.00;;;;;15.94;52.86;98696.97;5958674;29;99723;-63
2023/04/19 07:49:38;;;;;;;;;21.60;20.60;;;;;15.91;52.54;98695.59;5975697;29;96970;-64
2023/04/19 07:52:42;;;;;;;;;17.00;16.00;;;;;15.89;52.29;98700.47;5958329;29;96674;-64
2023/04/19 07:55:45;;;;;;;;;14.00;13.00;;;;;15.66;51.40;98698.13;5959221;29;96397;-64
2023/04/19 07:58:48;;;;;;;;;11.50;11.25;;;;;15.61;51.29;98703.50;5975594;29;96334;-64
2023/04/19 08:02:10;;;;;;;;;11.67;11.00;;;;;15.49;51.42;98706.34;5959244;29;98082;-64
2023/04/19 08:05:16;;;;;;;;;11.40;11.40;;;;;15.32;51.46;98700.22;5974158;29;96941;-64
2023/04/19 08:08:20;;;;;;;;;9.80;9.00;;;;;15.29;51.56;98710.78;5958663;29;97030;-63
2023/04/19 08:11:24;;;;;;;;;10.20;10.00;;;;;15.25;51.68;98707.75;5974435;29;96431;-63
2023/04/19 08:14:27;;;;;;;;;8.40;8.40;;;;;15.18;51.61;98704.44;5974646;29;96415;-64
2023/04/19 08:17:46;;;;;;;;;6.00;6.00;;;;;15.20;51.71;98704.19;5975261;29;96202;-63
2023/04/19 08:20:50;;;;;;;;;5.80;5.00;;;;;15.12;51.78;98698.13;5975294;29;96260;-63
2023/04/19 08:23:54;;;;;;;;;4.40;4.40;;;;;15.08;51.59;98697.00;5975281;29;96259;-64
2023/04/19 08:26:57;;;;;;;;;7.00;6.00;;;;;15.13;51.45;98701.66;5958512;29;97005;-63
2023/04/19 08:30:02;;;;;;;;;5.60;5.60;;;;;15.18;51.66;98699.81;5975197;29;96280;-64
2023/04/19 08:33:06;;;;;;;;;6.75;6.75;;;;;15.30;51.48;98705.06;5975209;29;96437;-64
2023/04/19 08:36:11;;;;;;;;;5.60;5.00;;;;;15.42;51.57;98705.75;5975329;29;96269;-64
2023/04/19 08:39:17;;;;;;;;;5.80;5.80;;;;;15.51;51.35;98701.53;5975413;29;96418;-64
2023/04/19 08:42:35;;;;;;;;;6.00;5.20;;;;;15.58;50.96;98706.75;5958878;29;97324;-64
2023/04/19 08:45:39;;;;;;;;;4.60;4.60;;;;;15.63;50.98;98704.09;5975131;29;96306;-64
2023/04/19 08:48:45;;;;;;;;;6.00;5.00;;;;;15.66;50.58;98714.44;5974982;29;96259;-64
2023/04/19 08:51:50;;;;;;;;;6.20;5.80;;;;;15.65;50.40;98712.78;5974494;29;96438;-64
2023/04/19 08:54:54;;;;;;;;;8.00;7.60;;;;;15.68;50.59;98708.75;5974983;29;97189;-64
2023/04/19 08:57:58;;;;;;;;;7.00;7.00;;;;;15.57;50.42;98708.66;5957939;29;96688;-64
2023/04/19 09:01:04;;;;;;;;;9.20;8.40;;;;;15.67;50.14;98720.69;5974641;29;96801;-63
2023/04/19 09:04:08;;;;;;;;;7.75;6.25;;;;;15.56;49.54;98720.59;5974905;29;96267;-64
2023/04/19 09:07:32;;;;;;;;;7.60;7.00;;;;;15.50;49.89;98713.44;5974737;29;96271;-64
2023/04/19 09:10:36;;;;;;;;;6.00;5.00;;;;;15.43;50.35;98714.72;5974634;29;96378;-64
2023/04/19 09:13:42;;;;;;;;;7.60;6.60;;;;;15.43;50.21;98725.59;5974583;29;97142;-64
2023/04/19 09:16:47;;;;;;;;;6.00;5.00;;;;;15.44;50.69;98727.25;5974607;29;96447;-64
2023/04/19 09:19:50;;;;;;;;;9.00;7.00;;;;;15.37;50.74;98722.00;5974484;29;97000;-64
2023/04/19 09:23:05;;;;;;;;;5.40;5.40;;;;;15.40;50.66;98721.47;5967119;29;96395;-64
2023/04/19 09:26:08;;;;;;;;;7.50;6.00;;;;;15.39;50.79;98717.16;5972136;29;96462;-64
2023/04/19 09:29:26;;;;;;;;;7.00;6.00;;;;;15.35;50.89;98721.44;5972204;29;96428;-64
2023/04/19 09:32:44;;;;;;;;;8.00;7.00;;;;;15.33;51.17;98722.78;5974129;29;96241;-63
2023/04/19 09:35:48;;;;;;;;;8.00;7.00;;;;;15.37;51.30;98722.00;5970625;29;96335;-64
2023/04/19 09:38:53;;;;;;;;;8.00;7.00;;;;;15.36;50.99;98724.97;5970985;29;96301;-64
2023/04/19 09:41:57;;;;;;;;;6.00;6.00;;;;;15.36;51.55;98725.78;5971164;29;96844;-64
2023/04/19 09:45:00;;;;;;;;;5.80;5.80;;;;;15.35;51.65;98724.16;5973356;29;96628;-64
2023/04/19 09:48:23;;;;;;;;;7.00;7.00;;;;;15.35;51.73;98726.88;5956718;29;97025;-64
2023/04/19 09:51:40;;;;;;;;;6.00;6.00;;;;;15.37;51.49;98722.00;5953975;29;96669;-64
2023/04/19 09:54:45;;;;;;;;;5.00;5.00;;;;;15.38;51.17;98725.53;5941553;29;96677;-64
2023/04/19 09:57:48;;;;;;;;;7.50;5.25;;;;;15.35;51.18;98728.75;5971048;29;96814;-64
2023/04/19 10:00:53;;;;;;;;;6.00;6.00;;;;;15.35;50.89;98726.03;5972846;29;96323;-64
2023/04/19 10:04:20;;;;;;;;;5.60;5.00;;;;;15.39;51.36;98730.72;5971089;29;96786;-63
2023/04/19 10:07:44;;;;;;;;;6.00;6.00;;;;;15.36;51.23;98731.22;5945775;29;96669;-64
2023/04/19 10:10:53;;;;;;;;;7.60;7.60;;;;;15.39;51.25;98733.44;5962870;29;97456;-64
2023/04/19 10:14:00;;;;;;;;;8.00;7.00;;;;;15.38;51.39;98739.94;5971654;29;96272;-63
2023/04/19 10:17:29;;;;;;;;;6.00;6.00;;;;;15.40;51.45;98726.09;5973072;29;96564;-64
2023/04/19 10:20:37;;;;;;;;;7.00;6.00;;;;;15.42;51.36;98726.66;5968187;29;96260;-63
2023/04/19 10:23:40;;;;;;;;;7.00;7.00;;;;;15.43;51.81;98723.69;5973205;29;96862;-64
2023/04/19 10:27:09;;;;;;;;;8.00;7.00;;;;;15.49;51.62;98722.66;5973064;29;96281;-64
2023/04/19 10:30:18;;;;;;;;;8.80;8.00;;;;;15.48;52.10;98717.50;5972685;29;97505;-64
2023/04/19 10:33:25;;;;;;;;;10.00;9.33;;;;;15.54;51.86;98722.72;5956306;29;96684;-64
2023/04/19 10:36:29;;;;;;;;;6.00;6.00;;;;;15.54;51.61;98717.31;5973646;29;96456;-64
2023/04/19 10:39:40;;;;;;;;;7.00;7.00;;;;;15.48;51.86;98712.88;5956943;29;97815;-64
2023/04/19 10:43:16;;;;;;;;;7.00;6.00;;;;;15.57;51.88;98721.41;5960409;29;96290;-64
2023/04/19 10:46:38;;;;;;;;;7.00;6.00;;;;;15.63;52.00;98725.81;5958259;29;98349;-64
2023/04/19 10:49:45;;;;;;;;;8.00;8.00;;;;;15.65;52.01;98734.53;5974534;29;96471;-64
2023/04/19 10:52:49;;;;;;;;;8.00;6.20;;;;;15.57;52.19;98714.09;5975595;29;96911;-63
2023/04/19 10:55:52;;;;;;;;;9.50;9.00;;;;;15.71;52.49;98729.94;5975499;29;96503;-64
2023/04/19 10:59:22;;;;;;;;;7.00;6.60;;;;;15.66;52.46;98730.72;5966417;29;96434;-63
2023/04/19 11:02:29;;;;;;;;;8.20;7.00;;;;;15.62;52.63;98726.91;5962759;29;96884;-63
2023/04/19 11:06:18;;;;;;;;;7.50;7.50;;;;;15.62;53.07;98729.59;5954028;29;96423;-63
2023/04/19 11:09:22;;;;;;;;;6.80;6.80;;;;;15.67;53.83;98718.78;5962530;29;96642;-63
2023/04/19 11:12:26;;;;;;;;;11.40;10.00;;;;;15.78;53.56;98719.69;5952716;29;97102;-63
2023/04/19 11:15:31;;;;;;;;;8.00;7.60;;;;;15.82;53.82;98715.38;5953609;29;96553;-63
2023/04/19 11:18:34;;;;;;;;;8.75;8.75;;;;;15.86;53.68;98709.16;5937055;29;96310;-63
2023/04/19 11:21:40;;;;;;;;;10.00;10.00;;;;;15.96;54.02;98711.13;5953369;29;96398;-64
2023/04/19 11:24:47;;;;;;;;;8.80;8.40;;;;;16.03;53.54;98709.00;5956187;29;97618;-63
2023/04/19 11:27:52;;;;;;;;;8.60;7.60;;;;;16.08;53.06;98702.81;5965774;29;97101;-64
2023/04/19 11:30:57;;;;;;;;;7.00;7.00;;;;;16.19;52.92;98701.75;5960076;29;96329;-64
2023/04/19 11:34:00;;;;;;;;;7.40;7.40;;;;;16.28;52.46;98711.88;5943338;29;97452;-63
2023/04/19 11:37:04;;;;;;;;;8.00;8.00;;;;;16.30;52.37;98714.34;5956762;29;98362;-63
2023/04/19 11:40:08;;;;;;;;;11.80;9.00;;;;;16.30;52.05;98712.47;5974059;29;96489;-63
2023/04/19 11:43:12;;;;;;;;;11.00;11.00;;;;;16.17;51.78;98699.34;5975095;29;97520;-63
2023/04/19 11:46:17;;;;;;;;;10.60;9.20;;;;;16.21;51.93;98719.47;5974334;29;96391;-63
2023/04/19 11:49:26;;;;;;;;;10.40;9.40;;;;;16.20;52.31;98711.56;5956947;29;96560;-63
2023/04/19 11:52:29;;;;;;;;;11.20;11.00;;;;;16.21;52.31;98714.03;5972926;29;97431;-64
2023/04/19 11:55:33;;;;;;;;;13.00;11.00;;;;;16.23;52.36;98714.56;5974692;29;96984;-64
2023/04/19 11:58:38;;;;;;;;;14.00;13.00;;;;;16.31;52.15;98721.44;5974443;29;96866;-64
2023/04/19 12:01:43;;;;;;;;;12.00;11.00;;;;;16.33;51.24;98727.41;5975279;29;97911;-64
2023/04/19 12:04:46;;;;;;;;;13.00;12.00;;;;;16.34;51.11;98729.88;5975395;29;96318;-64
2023/04/19 12:08:01;;;;;;;;;11.00;9.40;;;;;16.38;51.38;98728.28;5975451;29;96361;-64
2023/04/19 12:11:06;;;;;;;;;13.00;13.00;;;;;16.37;51.04;98731.28;5975513;29;96832;-64
2023/04/19 12:14:10;;;;;;;;;11.20;10.80;;;;;16.14;50.94;98713.44;5975286;29;97038;-64
2023/04/19 12:17:15;;;;;;;;;9.00;9.00;;;;;16.15;51.15;98733.28;5975248;29;96450;-64
2023/04/19 12:20:29;;;;;;;;;12.40;12.00;;;;;16.20;51.85;98734.16;5976026;29;96288;-64
2023/04/19 12:23:32;;;;;;;;;12.40;11.40;;;;;16.18;51.75;98730.84;5975295;29;96483;-64
2023/04/19 12:26:36;;;;;;;;;10.25;10.00;;;;;16.21;51.34;98734.97;5974682;29;96247;-64
2023/04/19 12:29:39;;;;;;;;;15.00;11.00;;;;;16.22;51.53;98737.44;5974768;29;96236;-64
2023/04/19 12:32:44;;;;;;;;;13.60;11.60;;;;;16.27;51.12;98733.94;5975082;29;96357;-64
2023/04/19 12:35:47;;;;;;;;;14.00;12.00;;;;;16.28;51.38;98728.22;5973955;29;96233;-64
2023/04/19 12:38:51;;;;;;;;;13.00;12.00;;;;;16.27;51.16;98732.00;5974951;29;97207;-64
2023/04/19 12:41:54;;;;;;;;;10.00;10.00;;;;;16.28;51.06;98725.50;5974613;29;96240;-63
2023/04/19 12:44:58;;;;;;;;;14.40;12.40;;;;;16.32;51.05;98732.03;5973004;29;96358;-64
2023/04/19 12:48:03;;;;;;;;;11.00;10.60;;;;;16.30;51.04;98733.41;5936204;29;96354;-64
2023/04/19 12:51:06;;;;;;;;;13.00;12.40;;;;;16.28;51.23;98727.38;5974336;29;96343;-63
2023/04/19 12:54:09;;;;;;;;;10.80;10.40;;;;;16.22;51.40;98721.13;5974196;29;97127;-63
2023/04/19 12:57:13;;;;;;;;;15.00;13.00;;;;;16.23;51.06;98720.00;5973595;29;97251;-64
2023/04/19 13:00:17;;;;;;;;;15.00;15.00;;;;;16.21;51.28;98724.91;5968173;29;96255;-64
2023/04/19 13:03:21;;;;;;;;;12.60;11.00;;;;;16.17;51.62;98729.25;5958176;29;96451;-63
2023/04/19 13:06:25;;;;;;;;;16.00;15.00;;;;;16.14;51.47;98732.47;5972411;29;96346;-63
2023/04/19 13:09:28;;;;;;;;;12.60;12.00;;;;;16.03;51.74;98717.97;5964354;29;96821;-64
2023/04/19 13:12:32;;;;;;;;;12.80;12.00;;;;;16.07;51.96;98736.50;5973994;29;97111;-64
2023/04/19 13:15:35;;;;;;;;;14.00;13.00;;;;;16.11;51.65;98730.28;5962139;29;96584;-63
2023/04/19 13:18:40;;;;;;;;;14.00;12.00;;;;;16.18;51.81;98728.13;5970220;29;97553;-63
2023/04/19 13:21:44;;;;;;;;;16.00;15.00;;;;;16.20;51.74;98725.16;5962682;29;96551;-64
2023/04/19 13:24:47;;;;;;;;;11.60;10.60;;;;;16.22;51.69;98726.56;5962564;29;96458;-64
2023/04/19 13:27:51;;;;;;;;;14.40;14.00;;;;;16.26;51.54;98730.41;5962242;29;96536;-63
2023/04/19 13:30:54;;;;;;;;;13.00;11.00;;;;;16.27;51.71;98725.78;5958982;29;97138;-63
2023/04/19 13:33:59;;;;;;;;;13.00;12.00;;;;;16.27;51.85;98734.72;5958425;29;96278;-64
2023/04/19 13:37:03;;;;;;;;;14.00;14.00;;;;;16.30;51.89;98730.69;5967980;29;96702;-64
2023/04/19 13:40:07;;;;;;;;;13.60;13.00;;;;;16.36;51.42;98735.91;5963014;29;96229;-64
2023/04/19 13:43:21;;;;;;;;;16.00;13.40;;;;;16.37;51.33;98731.28;5950688;29;96516;-63
2023/04/19 13:46:24;;;;;;;;;13.25;12.50;;;;;16.41;51.62;98727.78;5953709;29;96897;-63
2023/04/19 13:49:29;;;;;;;;;13.40;12.00;;;;;16.49;51.19;98729.16;5953484;29;96381;-63
2023/04/19 13:52:32;;;;;;;;;14.00;13.00;;;;;16.45;51.31;98714.44;5960019;29;97089;-63
2023/04/19 13:55:36;;;;;;;;;15.00;13.25;;;;;16.65;50.48;98730.91;5966154;29;96585;-64
2023/04/19 13:58:39;;;;;;;;;15.00;14.60;;;;;16.71;50.73;98724.41;5971687;29;96812;-63
2023/04/19 14:01:42;;;;;;;;;15.40;15.00;;;;;16.72;50.35;98730.66;5966499;29;97516;-64
2023/04/19 14:04:47;;;;;;;;;17.80;15.00;;;;;16.79;50.47;98720.34;5969414;29;97237;-64
2023/04/19 14:07:51;;;;;;;;;15.00;14.60;;;;;16.84;50.05;98720.38;5969972;29;98212;-64
2023/04/19 14:10:54;;;;;;;;;15.00;13.40;;;;;16.89;50.08;98717.69;5972457;29;97477;-64
2023/04/19 14:13:58;;;;;;;;;15.25;14.25;;;;;16.88;50.31;98714.13;5964798;29;97539;-64
2023/04/19 14:17:01;;;;;;;;;14.00;12.50;;;;;16.91;50.08;98712.75;5971480;29;96758;-64
2023/04/19 14:20:07;;;;;;;;;15.50;14.50;;;;;17.01;49.43;98717.44;5968645;29;97541;-64